Baltic Frost — 9HA2868 — position and weather

sailwx.info

Track history (hours):
 
Tides and Currents Weather Stations Pressure Air Temp Water Temp Dewpoint Dewpoint Depression Visibility Wind Speed Wind Dir Waves Ship Positions

Baltic Frost

Last reported at 2016-Sep-22 20:33 UTC. Time now 2016-Sep-25 17:25 UTC.
Position N 55°33' E 015°14'.

Length 182 m; draft 6.8 m.

Type: Ship. MMSI: 256495000.

Date/timePositionNaut miles runAvg speedWind from/ knotsBaromVisibWave heightAir tempDewpointWater temp
2016-Sep-22 20:33N 55°33' E 015°14'48 5.9
2016-Sep-22 12:33N 55°11' E 014°00'47 5.8
2016-Sep-22 04:34N 55°18' E 012°39'6 5.7
2016-Sep-22 03:34N 55°23' E 012°40'29 9.8
2016-Sep-22 00:33N 55°53' E 012°40'1212.5
2016-Sep-21 23:33N 56°05' E 012°36'8 7.9
2016-Sep-21 22:33N 56°10' E 012°24'12 4.0
2016-Sep-21 19:33N 56°16' E 012°05'17 5.8
2016-Sep-21 16:33N 56°33' E 011°57'37 5.3
2016-Sep-21 09:33N 57°08' E 011°37'5 5.2
2016-Sep-21 08:33N 57°13' E 011°34'15 4.9
2016-Sep-21 05:33N 57°27' E 011°25'9 4.4
2016-Sep-21 03:33N 57°34' E 011°34'9 9.2
2016-Sep-21 02:33N 57°40' E 011°47'3 0.4
2016-Sep-20 17:31N 57°41' E 011°53'0 0.0
2016-Sep-20 14:33N 57°41' E 011°53'0 0.0
2016-Sep-20 13:33N 57°41' E 011°53'0 0.0
2016-Sep-20 10:31N 57°41' E 011°53'0 0.0
2016-Sep-20 08:33N 57°41' E 011°53'0 0.0
2016-Sep-20 07:33N 57°41' E 011°53'0 0.0
2016-Sep-20 06:33N 57°41' E 011°53'0 0.0
2016-Sep-20 02:31N 57°41' E 011°53'0 0.0
2016-Sep-19 23:33N 57°41' E 011°53'0 0.0
2016-Sep-19 19:31N 57°41' E 011°53'0 0.0
2016-Sep-19 18:33N 57°41' E 011°53'10 4.9
2016-Sep-19 16:33N 57°35' E 011°39'2 0.9
2016-Sep-19 14:33N 57°33' E 011°39'1 0.6
2016-Sep-19 13:33N 57°33' E 011°38'1010.4
2016-Sep-19 12:33N 57°39' E 011°22'1212.0
2016-Sep-19 11:33N 57°44' E 011°02'5212.4
2016-Sep-19 07:22N 57°46' E 009°25'1412.8
2016-Sep-19 06:15N 57°44' E 008°58'3412.6
2016-Sep-19 03:33N 57°41' E 007°54'3511.8
2016-Sep-19 00:32N 57°43' E 006°48'  
Track history (hours):
 
Tides and Currents Weather Stations Pressure Air Temp Water Temp Dewpoint Dewpoint Depression Visibility Wind Speed Wind Dir Waves Ship Positions

Baltic Frost

Last reported at 2016-Sep-22 20:33 UTC. Time now 2016-Sep-25 17:25 UTC.
Position N 55°33' E 015°14'.

Length 182 m; draft 6.8 m.

Type: Ship. MMSI: 256495000.

Date/timePositionNaut miles runAvg speedWind from/ knotsBaromVisibWave heightAir tempDewpointWater temp
2016-Sep-22 20:33N 55°33' E 015°14'48 5.9
2016-Sep-22 12:33N 55°11' E 014°00'47 5.8
2016-Sep-22 04:34N 55°18' E 012°39'6 5.7
2016-Sep-22 03:34N 55°23' E 012°40'29 9.8
2016-Sep-22 00:33N 55°53' E 012°40'1212.5
2016-Sep-21 23:33N 56°05' E 012°36'8 7.9
2016-Sep-21 22:33N 56°10' E 012°24'12 4.0
2016-Sep-21 19:33N 56°16' E 012°05'17 5.8
2016-Sep-21 16:33N 56°33' E 011°57'37 5.3
2016-Sep-21 09:33N 57°08' E 011°37'5 5.2
2016-Sep-21 08:33N 57°13' E 011°34'15 4.9
2016-Sep-21 05:33N 57°27' E 011°25'9 4.4
2016-Sep-21 03:33N 57°34' E 011°34'9 9.2
2016-Sep-21 02:33N 57°40' E 011°47'3 0.4
2016-Sep-20 17:31N 57°41' E 011°53'0 0.0
2016-Sep-20 14:33N 57°41' E 011°53'0 0.0
2016-Sep-20 13:33N 57°41' E 011°53'0 0.0
2016-Sep-20 10:31N 57°41' E 011°53'0 0.0
2016-Sep-20 08:33N 57°41' E 011°53'0 0.0
2016-Sep-20 07:33N 57°41' E 011°53'0 0.0
2016-Sep-20 06:33N 57°41' E 011°53'0 0.0
2016-Sep-20 02:31N 57°41' E 011°53'0 0.0
2016-Sep-19 23:33N 57°41' E 011°53'0 0.0
2016-Sep-19 19:31N 57°41' E 011°53'0 0.0
2016-Sep-19 18:33N 57°41' E 011°53'10 4.9
2016-Sep-19 16:33N 57°35' E 011°39'2 0.9
2016-Sep-19 14:33N 57°33' E 011°39'1 0.6
2016-Sep-19 13:33N 57°33' E 011°38'1010.4
2016-Sep-19 12:33N 57°39' E 011°22'1212.0
2016-Sep-19 11:33N 57°44' E 011°02'5212.4
2016-Sep-19 07:22N 57°46' E 009°25'1412.8
2016-Sep-19 06:15N 57°44' E 008°58'3412.6
2016-Sep-19 03:33N 57°41' E 007°54'3511.8
2016-Sep-19 00:32N 57°43' E 006°48'  

Dump ship's entire track history